Terminal Aerodrome Forecast
Issued by NWS

Home | Current Version | Previous Version | Text Only | Print | Product List | Glossary On
Versions: 1 2 3 4 5 6 7 8 9 10 11 12
000
FTUS45 KRIW 182300
TAFCPR
TAF
KCPR 182320Z 1900/1924 32010KT P6SM VCSH SCT110 BKN150
     FM190300 05007KT P6SM VCSH SCT110 BKN200
     FM190800 VRB05KT P6SM SCT120
     FM191500 21007KT P6SM SCT100
     FM192000 17007KT P6SM VCTS SCT080CB=

USA.gov is the U.S. government's official web portal to all federal, state and local government web resources and services.